createdAt,value
2018-06-10T00:02:29.809Z,99.90
2018-06-10T00:05:02.482Z,99.90
2018-06-10T00:07:35.218Z,99.90
2018-06-10T00:10:07.636Z,99.90
2018-06-10T00:12:40.038Z,99.90
2018-06-10T00:15:12.448Z,99.90
2018-06-10T00:17:44.861Z,99.90
2018-06-10T00:20:17.269Z,99.90
2018-06-10T00:22:49.664Z,99.90
2018-06-10T00:25:22.350Z,99.90
2018-06-10T00:27:55.021Z,99.90
2018-06-10T00:30:27.710Z,99.90
2018-06-10T00:33:00.365Z,99.90
2018-06-10T00:35:32.884Z,99.90
2018-06-10T00:38:05.277Z,99.90
2018-06-10T00:40:37.681Z,99.90
2018-06-10T00:43:10.081Z,99.90
2018-06-10T00:45:42.741Z,99.90
2018-06-10T00:48:15.138Z,99.90
2018-06-10T00:50:47.545Z,99.90
2018-06-10T00:53:19.924Z,99.90
2018-06-10T00:55:52.350Z,99.90
2018-06-10T00:58:25.253Z,99.90
2018-06-10T01:00:57.658Z,99.90
2018-06-10T01:03:30.306Z,99.90
2018-06-10T01:06:02.717Z,99.90
2018-06-10T01:08:35.109Z,99.90
2018-06-10T01:11:07.511Z,99.90
2018-06-10T01:16:12.469Z,99.90
2018-06-10T01:18:44.865Z,99.90
2018-06-10T01:21:17.597Z,99.90
2018-06-10T01:23:50.249Z,99.90
2018-06-10T01:26:22.653Z,99.90
2018-06-10T01:28:55.048Z,99.90
2018-06-10T01:31:27.686Z,99.90
2018-06-10T01:34:00.404Z,99.90
2018-06-10T01:36:32.801Z,99.90
2018-06-10T01:39:06.013Z,99.90
2018-06-10T01:41:38.705Z,99.90
2018-06-10T01:44:11.106Z,99.90
2018-06-10T01:46:43.536Z,99.90
2018-06-10T01:49:16.168Z,99.90
2018-06-10T01:51:48.581Z,99.90
2018-06-10T01:54:20.977Z,99.90
2018-06-10T01:56:53.896Z,99.90
2018-06-10T01:59:26.310Z,99.90
2018-06-10T02:01:58.728Z,99.90
2018-06-10T02:07:03.401Z,99.90
2018-06-10T02:09:36.029Z,99.90
2018-06-10T02:12:08.720Z,99.90
2018-06-10T02:14:41.122Z,99.90
2018-06-10T02:17:13.526Z,99.90
2018-06-10T02:19:46.530Z,99.90
2018-06-10T02:22:19.225Z,99.90
2018-06-10T02:24:51.621Z,99.90
2018-06-10T02:27:24.029Z,99.90
2018-06-10T02:29:56.425Z,99.90
2018-06-10T02:32:29.068Z,99.90
2018-06-10T02:35:02.033Z,99.90
2018-06-10T02:37:34.793Z,99.90
2018-06-10T02:40:07.193Z,99.90
2018-06-10T02:42:39.648Z,99.90
2018-06-10T02:45:12.039Z,99.90
2018-06-10T02:47:44.466Z,99.90
2018-06-10T02:50:16.978Z,99.90
2018-06-10T02:52:49.945Z,99.90
2018-06-10T02:55:22.585Z,99.90
2018-06-10T02:57:55.225Z,99.90
2018-06-10T03:00:27.958Z,99.90
2018-06-10T03:03:00.366Z,99.90
2018-06-10T03:05:32.753Z,99.90
2018-06-10T03:08:05.157Z,99.90
2018-06-10T03:10:37.558Z,99.90
2018-06-10T03:13:09.963Z,99.90
2018-06-10T03:15:42.349Z,99.90
2018-06-10T03:18:15.015Z,99.90
2018-06-10T03:20:47.690Z,99.90
2018-06-10T03:23:20.095Z,99.90
2018-06-10T03:25:52.782Z,99.90
2018-06-10T03:28:25.486Z,99.90
2018-06-10T03:30:58.152Z,99.90
2018-06-10T03:33:30.877Z,99.90
2018-06-10T03:36:03.269Z,99.90
2018-06-10T03:38:35.677Z,99.90
2018-06-10T03:41:08.068Z,99.90
2018-06-10T03:43:40.977Z,99.90
2018-06-10T03:46:13.377Z,99.90
2018-06-10T03:48:45.764Z,99.90
2018-06-10T03:51:18.467Z,99.90
2018-06-10T03:53:51.141Z,99.90
2018-06-10T03:56:23.541Z,99.90
2018-06-10T03:58:56.199Z,99.90
2018-06-10T04:01:28.853Z,99.90
2018-06-10T04:04:01.258Z,99.90
2018-06-10T04:06:33.650Z,99.90
2018-06-10T04:09:06.597Z,99.90
2018-06-10T04:11:39.276Z,99.90
2018-06-10T04:14:11.909Z,99.90
2018-06-10T04:16:44.297Z,99.90
2018-06-10T04:19:17.013Z,99.90
2018-06-10T04:21:49.402Z,99.90
2018-06-10T04:24:21.809Z,99.90
2018-06-10T04:26:54.201Z,99.90
2018-06-10T04:29:26.603Z,99.90
2018-06-10T04:31:59.278Z,99.90
2018-06-10T04:34:31.977Z,99.90
2018-06-10T04:37:04.373Z,99.90
2018-06-10T04:39:36.768Z,99.90
2018-06-10T04:42:09.157Z,99.90
2018-06-10T04:44:41.865Z,99.90
2018-06-10T04:47:14.547Z,99.90
2018-06-10T04:49:47.453Z,99.90
2018-06-10T04:52:19.858Z,99.90
2018-06-10T04:54:52.265Z,99.90
2018-06-10T04:57:24.946Z,99.90
2018-06-10T04:59:57.353Z,99.90
2018-06-10T05:02:29.749Z,99.90
2018-06-10T05:05:02.165Z,99.90
2018-06-10T05:07:34.830Z,99.90
2018-06-10T05:10:07.514Z,99.90
2018-06-10T05:12:39.909Z,99.90
2018-06-10T05:15:12.308Z,99.90
2018-06-10T05:17:44.688Z,99.90
2018-06-10T05:20:17.426Z,99.90
2018-06-10T05:22:49.811Z,99.90
2018-06-10T05:25:22.701Z,99.90
2018-06-10T05:27:55.349Z,99.90
2018-06-10T05:30:27.728Z,99.90
2018-06-10T05:33:00.141Z,99.90
2018-06-10T05:35:32.620Z,99.90
2018-06-10T05:38:05.585Z,99.90
2018-06-10T05:40:38.206Z,99.90
2018-06-10T05:43:10.610Z,99.90
2018-06-10T05:45:43.013Z,99.90
2018-06-10T05:50:47.897Z,99.90
2018-06-10T05:53:20.314Z,99.90
2018-06-10T05:55:52.702Z,99.90
2018-06-10T05:58:25.358Z,99.70
2018-06-10T06:00:58.025Z,98.70
2018-06-10T06:03:30.985Z,97.40
2018-06-10T06:06:03.450Z,96.20
2018-06-10T06:08:36.161Z,96.10
2018-06-10T06:11:08.598Z,97.10
2018-06-10T06:13:41.235Z,97.10
2018-06-10T06:18:46.166Z,97.30
2018-06-10T06:21:18.570Z,97.40
2018-06-10T06:23:51.218Z,97.30
2018-06-10T06:26:23.715Z,97.70
2018-06-10T06:28:56.373Z,97.60
2018-06-10T06:31:29.030Z,97.20
2018-06-10T06:34:01.751Z,97.20
2018-06-10T06:36:34.485Z,97.20
2018-06-10T06:39:08.117Z,97.70
2018-06-10T06:41:40.517Z,97.00
2018-06-10T06:44:12.921Z,96.50
2018-06-10T06:46:45.356Z,96.40
2018-06-10T06:49:17.764Z,96.00
2018-06-10T06:51:50.523Z,95.80
2018-06-10T06:54:22.976Z,95.70
2018-06-10T06:56:55.758Z,95.30
2018-06-10T06:59:28.182Z,95.50
2018-06-10T07:02:00.585Z,95.20
2018-06-10T07:04:33.004Z,95.70
2018-06-10T07:07:05.562Z,95.50
2018-06-10T07:09:37.982Z,95.10
2018-06-10T07:12:10.714Z,95.30
2018-06-10T07:14:43.457Z,95.70
2018-06-10T07:17:16.133Z,96.00
2018-06-10T07:19:48.545Z,95.70
2018-06-10T07:22:20.962Z,95.30
2018-06-10T07:24:53.380Z,95.20
2018-06-10T07:27:26.014Z,95.60
2018-06-10T07:29:58.441Z,95.80
2018-06-10T07:32:31.173Z,96.10
2018-06-10T07:35:04.065Z,95.70
2018-06-10T07:37:36.457Z,95.50
2018-06-10T07:40:08.870Z,95.70
2018-06-10T07:42:41.521Z,95.90
2018-06-10T07:45:13.941Z,96.10
2018-06-10T07:47:46.377Z,95.90
2018-06-10T07:50:19.353Z,95.90
2018-06-10T07:52:51.753Z,95.90
2018-06-10T07:55:24.166Z,96.50
2018-06-10T07:57:56.842Z,96.60
2018-06-10T08:00:29.266Z,96.80
2018-06-10T08:03:01.969Z,96.90
2018-06-10T08:05:34.366Z,96.60
2018-06-10T08:08:06.977Z,96.80
2018-06-10T08:10:39.383Z,96.70
2018-06-10T08:13:12.086Z,96.90
2018-06-10T08:15:44.506Z,97.20
2018-06-10T08:18:17.149Z,97.60
2018-06-10T08:20:49.841Z,97.90
2018-06-10T08:23:22.227Z,97.80
2018-06-10T08:25:54.629Z,98.20
2018-06-10T08:28:27.012Z,97.90
2018-06-10T08:30:59.416Z,97.80
2018-06-10T08:33:31.801Z,97.80
2018-06-10T08:36:04.486Z,97.50
2018-06-10T08:38:36.873Z,97.70
2018-06-10T08:41:09.273Z,97.50
2018-06-10T08:43:42.086Z,97.30
2018-06-10T08:46:14.531Z,97.20
2018-06-10T08:48:46.934Z,96.70
2018-06-10T08:51:19.621Z,96.60
2018-06-10T08:53:52.022Z,96.70
2018-06-10T08:56:24.442Z,96.40
2018-06-10T08:58:56.841Z,96.30
2018-06-10T09:01:29.546Z,96.30
2018-06-10T09:04:02.297Z,96.00
2018-06-10T09:06:34.713Z,95.70
2018-06-10T09:09:08.815Z,95.00
2018-06-10T09:11:41.489Z,95.00
2018-06-10T09:14:13.898Z,94.20
2018-06-10T09:16:46.320Z,93.60
2018-06-10T09:19:18.733Z,91.90
2018-06-10T09:21:51.137Z,92.30
2018-06-10T09:24:23.539Z,91.40
2018-06-10T09:26:56.193Z,91.50
2018-06-10T09:29:28.597Z,91.20
2018-06-10T09:34:33.448Z,92.50
2018-06-10T09:37:05.865Z,92.50
2018-06-10T09:39:38.320Z,93.20
2018-06-10T09:42:10.742Z,93.30
2018-06-10T09:44:43.401Z,93.50
2018-06-10T09:47:15.823Z,93.30
2018-06-10T09:49:48.227Z,92.70
2018-06-10T09:52:20.638Z,93.10
2018-06-10T09:54:53.617Z,93.60
2018-06-10T09:57:26.331Z,93.50
2018-06-10T09:59:59.011Z,93.80
2018-06-10T10:02:31.689Z,93.70
2018-06-10T10:05:04.538Z,93.90
2018-06-10T10:07:36.947Z,93.70
2018-06-10T10:10:09.686Z,93.70
2018-06-10T10:12:42.107Z,92.70
2018-06-10T10:15:14.513Z,92.70
2018-06-10T10:17:46.948Z,92.00
2018-06-10T10:20:19.381Z,91.00
2018-06-10T10:22:51.806Z,90.90
2018-06-10T10:25:24.193Z,89.50
2018-06-10T10:27:57.144Z,89.60
2018-06-10T10:30:29.877Z,85.10
2018-06-10T10:33:02.566Z,84.80
2018-06-10T10:35:35.225Z,84.30
2018-06-10T10:38:07.654Z,83.60
2018-06-10T10:40:40.313Z,81.00
2018-06-10T10:43:12.736Z,78.10
2018-06-10T10:45:45.162Z,79.50
2018-06-10T10:48:17.576Z,79.50
2018-06-10T10:50:49.984Z,80.20
2018-06-10T10:53:22.401Z,81.10
2018-06-10T10:55:54.796Z,82.10
2018-06-10T10:58:27.217Z,81.90
2018-06-10T11:00:59.633Z,82.90
2018-06-10T11:03:32.057Z,82.80
2018-06-10T11:06:04.766Z,83.10
2018-06-10T11:08:37.181Z,82.20
2018-06-10T11:11:09.600Z,83.50
2018-06-10T11:13:42.257Z,83.20
2018-06-10T11:16:14.674Z,84.10
2018-06-10T11:18:47.085Z,85.00
2018-06-10T11:21:19.509Z,84.00
2018-06-10T11:23:52.558Z,84.00
2018-06-10T11:26:25.250Z,83.60
2018-06-10T11:28:57.909Z,83.70
2018-06-10T11:31:30.613Z,81.70
2018-06-10T11:34:03.005Z,77.70
2018-06-10T11:36:35.664Z,78.70
2018-06-10T11:39:08.411Z,76.40
2018-06-10T11:41:40.825Z,76.40
2018-06-10T11:44:13.230Z,75.60
2018-06-10T11:46:45.658Z,77.00
2018-06-10T11:49:18.361Z,77.20
2018-06-10T11:51:50.774Z,79.10
2018-06-10T11:54:23.513Z,80.00
2018-06-10T11:56:55.917Z,81.30
2018-06-10T11:59:28.346Z,81.70
2018-06-10T12:07:05.254Z,81.40
2018-06-10T12:09:37.653Z,82.50
2018-06-10T12:12:10.090Z,82.00
2018-06-10T12:14:42.793Z,82.60
2018-06-10T12:17:15.474Z,82.10
2018-06-10T12:19:48.457Z,83.40
2018-06-10T12:22:21.137Z,83.90
2018-06-10T12:24:53.698Z,86.30
2018-06-10T12:27:26.388Z,86.60
2018-06-10T12:29:58.789Z,86.80
2018-06-10T12:32:31.197Z,87.40
2018-06-10T12:35:03.614Z,86.10
2018-06-10T12:37:36.025Z,86.40
2018-06-10T12:40:08.461Z,85.70
2018-06-10T12:42:41.132Z,86.60
2018-06-10T12:45:13.773Z,86.80
2018-06-10T12:47:46.228Z,84.80
2018-06-10T12:50:18.968Z,85.00
2018-06-10T12:52:51.386Z,84.40
2018-06-10T12:55:23.785Z,84.20
2018-06-10T12:57:56.463Z,83.80
2018-06-10T13:00:29.169Z,85.00
2018-06-10T13:03:01.581Z,82.40
2018-06-10T13:05:33.989Z,82.90
2018-06-10T13:08:06.695Z,83.60
2018-06-10T13:10:39.337Z,83.70
2018-06-10T13:13:11.765Z,82.80
2018-06-10T13:15:44.166Z,82.60
2018-06-10T13:18:16.853Z,82.30
2018-06-10T13:20:49.253Z,82.70
2018-06-10T13:23:21.661Z,83.20
2018-06-10T13:25:54.061Z,82.30
2018-06-10T13:28:26.469Z,83.50
2018-06-10T13:30:58.886Z,84.80
2018-06-10T13:33:31.305Z,84.60
2018-06-10T13:36:03.710Z,84.80
2018-06-10T13:38:36.382Z,84.30
2018-06-10T13:41:09.016Z,84.60
2018-06-10T13:43:41.442Z,85.10
2018-06-10T13:46:13.893Z,83.60
2018-06-10T13:48:46.278Z,84.00
2018-06-10T13:51:18.925Z,83.00
2018-06-10T13:53:51.604Z,83.00
2018-06-10T13:56:24.108Z,82.30
2018-06-10T13:58:56.518Z,83.10
2018-06-10T14:01:29.142Z,81.60
2018-06-10T14:04:01.541Z,81.20
2018-06-10T14:06:33.957Z,80.50
2018-06-10T14:09:06.472Z,79.20
2018-06-10T14:11:38.856Z,80.80
2018-06-10T14:14:11.258Z,80.50
2018-06-10T14:16:43.645Z,80.70
2018-06-10T14:19:16.580Z,80.30
2018-06-10T14:21:48.966Z,79.70
2018-06-10T14:24:21.937Z,78.50
2018-06-10T14:26:54.573Z,79.00
2018-06-10T14:29:26.993Z,78.90
2018-06-10T14:31:59.676Z,79.50
2018-06-10T14:34:32.358Z,79.80
2018-06-10T14:37:04.747Z,78.60
2018-06-10T14:39:37.157Z,79.70
2018-06-10T14:42:09.562Z,80.20
2018-06-10T14:44:41.969Z,79.50
2018-06-10T14:47:14.375Z,80.40
2018-06-10T14:49:47.061Z,79.00
2018-06-10T14:52:19.721Z,79.30
2018-06-10T14:54:52.455Z,78.70
2018-06-10T14:57:24.813Z,79.30
2018-06-10T14:59:57.215Z,78.30
2018-06-10T15:02:29.605Z,78.70
2018-06-10T15:05:02.240Z,78.90
2018-06-10T15:07:34.695Z,79.10
2018-06-10T15:10:07.105Z,79.10
2018-06-10T15:12:39.589Z,78.80
2018-06-10T15:15:12.297Z,80.20
2018-06-10T15:17:44.697Z,80.20
2018-06-10T15:20:17.390Z,79.90
2018-06-10T15:22:49.845Z,80.30
2018-06-10T15:25:22.285Z,80.20
2018-06-10T15:27:54.668Z,80.70
2018-06-10T15:30:27.073Z,81.60
2018-06-10T15:32:59.466Z,82.00
2018-06-10T15:35:32.618Z,81.30
2018-06-10T15:38:05.038Z,81.10
2018-06-10T15:40:37.811Z,80.10
2018-06-10T15:43:10.177Z,80.60
2018-06-10T15:45:43.872Z,81.40
2018-06-10T15:48:16.282Z,80.20
2018-06-10T15:50:49.230Z,79.90
2018-06-10T15:53:21.905Z,79.70
2018-06-10T15:55:54.565Z,79.50
2018-06-10T15:58:27.324Z,80.20
2018-06-10T16:00:59.818Z,79.70
2018-06-10T16:03:32.473Z,80.00
2018-06-10T16:06:04.903Z,80.30
2018-06-10T16:08:37.306Z,80.20
2018-06-10T16:11:09.717Z,81.10
2018-06-10T16:13:42.393Z,81.10
2018-06-10T16:16:14.852Z,80.10
2018-06-10T16:18:47.249Z,80.50
2018-06-10T16:21:20.042Z,79.20
2018-06-10T16:23:52.437Z,79.50
2018-06-10T16:26:25.094Z,79.20
2018-06-10T16:28:57.536Z,79.30
2018-06-10T16:31:29.962Z,78.90
2018-06-10T16:34:02.727Z,79.30
2018-06-10T16:36:35.362Z,79.60
2018-06-10T16:39:08.384Z,80.20
2018-06-10T16:41:40.850Z,79.50
2018-06-10T16:44:13.490Z,80.00
2018-06-10T16:46:45.920Z,80.50
2018-06-10T16:49:18.895Z,80.60
2018-06-10T16:51:51.301Z,79.80
2018-06-10T16:54:23.688Z,80.30
2018-06-10T16:56:56.212Z,80.80
2018-06-10T16:59:28.610Z,81.10
2018-06-10T17:02:01.051Z,80.70
2018-06-10T17:04:33.433Z,79.30
2018-06-10T17:07:05.836Z,79.60
2018-06-10T17:09:38.239Z,78.30
2018-06-10T17:12:10.649Z,78.60
2018-06-10T17:14:43.301Z,78.80
2018-06-10T17:17:15.696Z,79.60
2018-06-10T17:19:48.097Z,80.10
2018-06-10T17:22:20.493Z,79.40
2018-06-10T17:24:53.197Z,79.60
2018-06-10T17:27:25.696Z,79.90
2018-06-10T17:29:58.382Z,79.80
2018-06-10T17:32:31.054Z,79.20
2018-06-10T17:35:04.041Z,79.40
2018-06-10T17:37:36.717Z,79.50
2018-06-10T17:40:09.452Z,79.20
2018-06-10T17:42:42.083Z,79.40
2018-06-10T17:45:15.102Z,80.20
2018-06-10T17:47:47.790Z,81.00
2018-06-10T17:50:20.197Z,81.20
2018-06-10T17:52:52.857Z,81.70
2018-06-10T17:55:25.266Z,81.90
2018-06-10T17:57:57.665Z,82.10
2018-06-10T18:00:30.066Z,82.30
2018-06-10T18:03:02.458Z,82.40
2018-06-10T18:05:34.879Z,82.60
2018-06-10T18:08:07.261Z,83.10
2018-06-10T18:10:39.697Z,83.00
2018-06-10T18:15:44.357Z,83.40
2018-06-10T18:18:16.797Z,83.80
2018-06-10T18:20:49.201Z,83.90
2018-06-10T18:23:21.597Z,84.10
2018-06-10T18:25:54.326Z,84.20
2018-06-10T18:28:26.726Z,84.40
2018-06-10T18:30:59.133Z,84.90
2018-06-10T18:33:32.069Z,84.30
2018-06-10T18:36:04.749Z,85.10
2018-06-10T18:38:37.144Z,84.20
2018-06-10T18:41:09.910Z,84.30
2018-06-10T18:43:42.637Z,84.30
2018-06-10T18:46:15.110Z,84.40
2018-06-10T18:48:47.735Z,84.30
2018-06-10T18:51:21.132Z,84.80
2018-06-10T18:53:53.525Z,83.80
2018-06-10T18:56:25.933Z,84.00
2018-06-10T18:58:58.448Z,84.20
2018-06-10T19:01:30.845Z,83.90
2018-06-10T19:04:03.242Z,84.00
2018-06-10T19:06:35.706Z,84.10
2018-06-10T19:09:08.493Z,84.30
2018-06-10T19:11:40.887Z,84.50
2018-06-10T19:14:13.540Z,84.80
2018-06-10T19:16:45.952Z,84.90
2018-06-10T19:19:18.358Z,85.30
2018-06-10T19:21:50.769Z,85.50
2018-06-10T19:24:23.154Z,85.70
2018-06-10T19:26:56.602Z,86.00
2018-06-10T19:29:29.052Z,86.00
2018-06-10T19:32:01.997Z,86.20
2018-06-10T19:34:34.388Z,86.60
2018-06-10T19:37:06.799Z,86.80
2018-06-10T19:39:39.195Z,86.50
2018-06-10T19:42:11.610Z,87.40
2018-06-10T19:44:44.054Z,87.80
2018-06-10T19:47:16.464Z,88.20
2018-06-10T19:49:48.858Z,87.90
2018-06-10T19:52:21.321Z,88.30
2018-06-10T19:54:54.286Z,88.50
2018-06-10T19:57:26.698Z,88.80
2018-06-10T19:59:59.096Z,89.00
2018-06-10T20:02:31.509Z,89.50
2018-06-10T20:05:04.805Z,90.00
2018-06-10T20:07:37.471Z,89.90
2018-06-10T20:10:10.177Z,90.20
2018-06-10T20:15:15.246Z,90.30
2018-06-10T20:17:47.732Z,90.50
2018-06-10T20:20:20.130Z,90.60
2018-06-10T20:22:52.693Z,90.60
2018-06-10T20:25:25.081Z,90.60
2018-06-10T20:27:57.513Z,90.80
2018-06-10T20:30:29.948Z,90.80
2018-06-10T20:33:02.342Z,90.80
2018-06-10T20:35:34.731Z,90.90
2018-06-10T20:38:07.699Z,91.00
2018-06-10T20:40:40.379Z,91.10
2018-06-10T20:43:12.781Z,91.20
2018-06-10T20:45:46.210Z,91.30
2018-06-10T20:48:19.232Z,91.30
2018-06-10T20:50:51.870Z,91.50
2018-06-10T20:53:24.384Z,91.60
2018-06-10T20:55:57.069Z,91.60
2018-06-10T20:58:29.478Z,91.70
2018-06-10T21:01:01.885Z,91.90
2018-06-10T21:03:34.562Z,91.90
2018-06-10T21:06:06.959Z,92.40
2018-06-10T21:11:11.605Z,92.30
2018-06-10T21:13:44.281Z,92.60
2018-06-10T21:16:17.166Z,92.70
2018-06-10T21:18:49.639Z,92.80
2018-06-10T21:21:22.099Z,92.80
2018-06-10T21:23:54.793Z,92.70
2018-06-10T21:26:27.193Z,92.90
2018-06-10T21:28:59.841Z,93.00
2018-06-10T21:31:32.232Z,93.10
2018-06-10T21:34:04.969Z,93.20
2018-06-10T21:36:37.378Z,93.30
2018-06-10T21:39:10.122Z,93.20
2018-06-10T21:41:42.549Z,93.30
2018-06-10T21:44:15.274Z,93.60
2018-06-10T21:46:47.705Z,93.20
2018-06-10T21:49:20.119Z,93.20
2018-06-10T21:51:52.521Z,93.30
2018-06-10T21:54:25.173Z,93.40
2018-06-10T21:56:57.885Z,93.40
2018-06-10T21:59:30.298Z,93.40
2018-06-10T22:02:03.337Z,93.30
2018-06-10T22:04:35.792Z,93.20
2018-06-10T22:07:08.193Z,93.10
2018-06-10T22:09:40.614Z,93.10
2018-06-10T22:12:13.742Z,93.30
2018-06-10T22:14:46.154Z,93.20
2018-06-10T22:17:18.793Z,93.20
2018-06-10T22:19:51.545Z,93.30
2018-06-10T22:22:23.946Z,93.40
2018-06-10T22:24:56.640Z,93.40
2018-06-10T22:27:29.405Z,93.60
2018-06-10T22:30:01.981Z,93.80
2018-06-10T22:32:34.380Z,94.00
2018-06-10T22:35:06.797Z,94.20
2018-06-10T22:37:39.198Z,94.40
2018-06-10T22:40:11.623Z,94.50
2018-06-10T22:42:44.354Z,94.70
2018-06-10T22:45:16.773Z,94.70
2018-06-10T22:47:49.184Z,94.90
2018-06-10T22:50:21.577Z,95.00
2018-06-10T22:53:08.632Z,95.10
2018-06-10T22:55:41.017Z,95.00
2018-06-10T22:58:17.295Z,95.20
2018-06-10T23:00:49.677Z,95.00
2018-06-10T23:03:22.154Z,95.00
2018-06-10T23:05:54.594Z,95.00
2018-06-10T23:08:27.336Z,95.00
2018-06-10T23:10:59.997Z,95.00
2018-06-10T23:13:32.789Z,95.00
2018-06-10T23:16:05.197Z,95.10
2018-06-10T23:18:37.906Z,95.20
2018-06-10T23:21:10.487Z,95.20
2018-06-10T23:23:42.901Z,95.20
2018-06-10T23:26:15.558Z,95.50
2018-06-10T23:28:47.988Z,95.40
2018-06-10T23:31:20.391Z,95.50
2018-06-10T23:33:52.814Z,95.40
2018-06-10T23:36:25.221Z,95.50
2018-06-10T23:38:57.653Z,95.70
2018-06-10T23:41:30.096Z,95.70
2018-06-10T23:44:02.522Z,95.70
2018-06-10T23:46:34.914Z,95.80
2018-06-10T23:49:07.310Z,95.80
2018-06-10T23:51:39.706Z,96.00
2018-06-10T23:54:12.301Z,96.00
2018-06-10T23:56:45.002Z,96.00
2018-06-10T23:59:17.431Z,96.20
